Ojibwa, Wisconsin
Current Conditions -  °F | °C
As of 7:55 AM on Monday 24 Nov 2014 (Local Time) from KRCX Reporting Station
Light Snow Light Snow  
Wind Chill: 25°   Ceiling: 900
Heat Index: 34°   Visibility: 2mi
Dew Point: 33°   Wind: 12mph
Humidity: 99%   Direction: 310°NW
Pressure: 29.18"   Gusts: 18mph
Location:  45.8°N, 91.12°W
Report Text: KRCX 241355Z AUTO 31010G16KT 2SM -SN OVC009 01/01 A2918 RMK AO2 T00100008
Loading
Personal Weather Stations






























Interactive Weather Map New forecast layout! Learn more

10-Day Weather Forecast

Advertisements
Track Severe Weather on mobile